Flight Track Log - Related Links

Times and Time Zones

All times are in EDT time to prevent confusion due to time zone crossing. See the N8596W flight status page for this flight to view local times or setup timezone preferences in your user account.

Time Position Orientation Groundspeed Altitude Reporting Facility
EDT Latitude Longitude Course Direction KTS MPH feet Rate Location/Type
Fri 05:56:56 PM 38.9000 -76.3333 300° West 91 105 1,300  Level Potomac TRACON
Fri 05:57:56 PM 38.9167 -76.3167 38° Northeast 109 125 1,900 619 Climbing Potomac TRACON
Fri 05:59:02 PM 38.9500 -76.3167 360° North 127 146 2,600 595 Climbing Potomac TRACON
Fri 05:59:57 PM 38.9833 -76.3167 360° North 121 139 3,100 522 Climbing Potomac TRACON
Fri 06:00:57 PM 39.0167 -76.3333 339° North 123 142 3,600 500 Climbing Potomac TRACON
Fri 06:01:57 PM 39.0500 -76.3333 360° North 124 143 4,100 450 Climbing Potomac TRACON
Fri 06:02:00 PM 39.0140 -76.5775 300° West  Level Estimated
Fri 06:02:57 PM 39.0833 -76.3500 339° North 126 145 4,500  Level Potomac TRACON
Fri 06:03:57 PM 39.1167 -76.3500 360° North 130 150 4,800 350 Climbing Potomac TRACON
Fri 06:04:57 PM 39.1500 -76.3667 339° North 132 152 5,200 450 Climbing Potomac TRACON
Fri 06:05:57 PM 39.1833 -76.3667 360° North 126 145 5,700 350 Climbing Potomac TRACON
Fri 06:06:57 PM 39.2167 -76.3833 339° North 134 154 5,900 105 Climbing Potomac TRACON
Fri 06:07:51 PM 39.2500 -76.3833 360° North 148 170 5,900  Level Potomac TRACON
Fri 06:08:51 PM 39.3000 -76.4000 346° North 145 167 5,900  Level Potomac TRACON
Fri 06:09:51 PM 39.3333 -76.4167 339° North 132 152 5,900  Level Potomac TRACON
Fri 06:10:51 PM 39.3500 -76.4667 293° West 130 150 5,900  Level Potomac TRACON
Fri 06:11:51 PM 39.3667 -76.5000 303° West 133 153 5,900  Level Potomac TRACON
Fri 06:12:51 PM 39.3833 -76.5333 303° West 133 153 5,900  Level Potomac TRACON
Fri 06:13:51 PM 39.4000 -76.5833 293° West 135 155 5,900  Level Potomac TRACON
Fri 06:14:51 PM 39.4167 -76.6167 303° West 133 153 5,900  Level Potomac TRACON
Fri 06:15:52 PM 39.4500 -76.6667 311° West 137 158 5,900  Level Potomac TRACON
Fri 06:16:52 PM 39.4667 -76.7000 303° West 134 154 5,900  Level Potomac TRACON
Fri 06:17:52 PM 39.4833 -76.7500 293° West 133 153 5,900  Level Potomac TRACON
Fri 06:18:52 PM 39.5000 -76.7833 303° West 132 152 5,900  Level Potomac TRACON
Fri 06:19:52 PM 39.5167 -76.8167 303° West 134 154 5,900 50 Level Potomac TRACON
Fri 06:20:52 PM 39.5333 -76.8667 293° West 133 153 6,000  Climbing Potomac TRACON
Fri 06:21:52 PM 39.5667 -76.9000 322° Northwest 133 153 5,900 -53 Descending Potomac TRACON
Fri 06:22:46 PM 39.5833 -76.9333 303° West 132 152 5,900 105 Level Potomac TRACON
Fri 06:23:46 PM 39.6000 -76.9833 293° West 127 146 6,100 149 Climbing Potomac TRACON
Fri 06:24:47 PM 39.6167 -77.0167 303° West 131 151 6,200  Climbing Potomac TRACON
Fri 06:25:53 PM 39.6333 -77.0667 293° West 136 157 6,100 -94 Descending Potomac TRACON
Fri 06:26:54 PM 39.6500 -77.1000 303° West 128 147 6,000  Descending Potomac TRACON
Fri 06:27:54 PM 39.6333 -77.1333 237° Southwest 111 128 6,100  Climbing Potomac TRACON
Fri 06:28:48 PM 39.6333 -77.1667 270° West 112 129 6,000 -50 Descending Potomac TRACON
Fri 06:29:54 PM 39.6167 -77.2167 247° West 120 138 6,000  Level Potomac TRACON
Fri 06:30:54 PM 39.6167 -77.2667 270° West 117 135 6,000 -50 Level Potomac TRACON
Fri 06:31:54 PM 39.6167 -77.3000 270° West 125 144 5,900  Descending Potomac TRACON
Fri 06:32:54 PM 39.6333 -77.3500 293° West 127 146 6,000 50 Climbing Potomac TRACON
Fri 06:33:54 PM 39.6500 -77.3833 303° West 127 146 6,000 -48 Level Potomac TRACON
Fri 06:34:58 PM 39.6561 -77.4258 281° West 123 142 5,900  Descending Cleveland Center
Fri 06:36:00 PM 39.6669 -77.4689 288° West 123 142 6,000 48 Climbing Cleveland Center
Fri 06:37:02 PM 39.6792 -77.5189 288° West 123 142 6,000  Level Cleveland Center
Fri 06:38:04 PM 39.6878 -77.5606 285° West 123 142 6,000 -48 Level Cleveland Center
Fri 06:39:06 PM 39.6981 -77.6042 287° West 123 142 5,900 -54 Descending Cleveland Center
Fri 06:39:55 PM 39.7167 -77.6500 298° West 126 145 5,900 55 Level Potomac TRACON
Fri 06:40:55 PM 39.7167 -77.6833 270° West 125 144 6,000 50 Climbing Potomac TRACON
Fri 06:41:55 PM 39.7333 -77.7333 293° West 122 140 6,000  Level Potomac TRACON
Fri 06:42:55 PM 39.7333 -77.7667 270° West 127 146 6,000 -50 Level Potomac TRACON
Fri 06:43:55 PM 39.7500 -77.8167 293° West 129 148 5,900  Descending Potomac TRACON
Fri 06:44:56 PM 39.7667 -77.8500 303° West 126 145 6,000 41 Climbing Potomac TRACON
Fri 06:46:21 PM 39.7756 -77.9156 280° West 125 144 6,000  Level Cleveland Center
Fri 06:47:23 PM 39.7864 -77.9586 288° West 125 144 6,000  Level Cleveland Center
Fri 06:48:25 PM 39.7969 -78.0017 288° West 125 144 6,000  Level Cleveland Center
Fri 06:49:27 PM 39.8089 -78.0519 287° West 125 144 6,000  Level Cleveland Center
Fri 06:50:08 PM 39.8150 -78.0808 285° West 122 140 6,000  Level Cleveland Center
Fri 06:50:29 PM 39.8189 -78.0933 292° West 124 143 6,000  Level Cleveland Center
Fri 06:51:09 PM 39.8244 -78.1228 284° West 122 140 6,000  Level Cleveland Center
Fri 06:51:31 PM 39.8297 -78.1361 297° West 124 143 6,000  Level Cleveland Center
Fri 06:52:10 PM 39.8356 -78.1678 283° West 127 146 6,000 97 Level Cleveland Center
Fri 06:52:33 PM 39.8400 -78.1797 296° West 124 143 6,100  Climbing Cleveland Center
Fri 06:53:11 PM 39.8467 -78.2153 284° West 127 146 6,000 -97 Descending Cleveland Center
Fri 06:53:35 PM 39.8506 -78.2244 299° West 125 144 6,000  Level Cleveland Center
Fri 06:54:11 PM 39.8561 -78.2572 282° West 128 147 6,000  Level Cleveland Center
Fri 06:54:38 PM 39.8603 -78.2686 295° West 125 144 6,000  Level Cleveland Center
Fri 06:55:11 PM 39.8675 -78.2994 287° West 124 143 6,000  Level Cleveland Center
Fri 06:55:40 PM 39.8719 -78.3111 296° West 125 144 6,000  Level Cleveland Center
Fri 06:56:12 PM 39.8792 -78.3417 287° West 124 143 6,000  Level Cleveland Center
Fri 06:56:42 PM 39.8839 -78.3636 286° West 125 144 6,000  Level Cleveland Center
Fri 06:57:13 PM 39.8881 -78.3892 282° West 123 142 6,000  Level Cleveland Center
Fri 06:57:44 PM 39.8936 -78.4053 294° West 124 143 6,000  Level Cleveland Center
Fri 06:58:13 PM 39.8994 -78.4314 286° West 124 143 6,000  Level Cleveland Center
Fri 06:58:46 PM 39.9050 -78.4486 293° West 124 143 6,000  Level Cleveland Center
Fri 06:59:14 PM 39.9108 -78.4736 287° West 127 146 6,000  Level Cleveland Center
Fri 06:59:48 PM 39.9142 -78.4931 283° West 125 144 6,000  Level Cleveland Center
Fri 07:00:14 PM 39.9181 -78.5156 283° West 124 143 6,000  Level Cleveland Center
Fri 07:00:50 PM 39.9233 -78.5350 289° West 125 144 6,000  Level Cleveland Center
Fri 07:01:15 PM 39.9311 -78.5608 291° West 125 144 6,000 -97 Level Cleveland Center
Fri 07:01:52 PM 39.9383 -78.5869 290° West 125 144 5,900  Descending Cleveland Center
Fri 07:02:16 PM 39.9422 -78.6058 285° West 132 152 6,000 97 Climbing Cleveland Center
Fri 07:02:54 PM 39.9483 -78.6253 292° West 126 145 6,000  Level Cleveland Center
Fri 07:04:00 PM 39.9637 -78.6727 293° West  Level FlightAware Approximate
Fri 07:11:00 PM 40.0311 -78.9886 285° West  Level FlightAware Approximate
Fri 07:12:00 PM 40.0333 -79.0000 285° West  Level FlightAware Approximate

Login

Don't have an account? Register now (free) for customized features, flight alerts, and more!